createdAt,value
2023-03-03T00:01:56.399Z,28.52
2023-03-03T00:11:57.734Z,28.33
2023-03-03T00:21:59.023Z,26.60
2023-03-03T00:32:01.565Z,26.30
2023-03-03T00:42:06.062Z,29.83
2023-03-03T00:52:07.331Z,26.50
2023-03-03T01:02:08.576Z,27.30
2023-03-03T01:12:09.827Z,25.63
2023-03-03T01:22:11.043Z,26.73
2023-03-03T01:32:12.300Z,26.65
2023-03-03T01:42:13.539Z,27.27
2023-03-03T01:52:14.805Z,28.23
2023-03-03T02:02:16.172Z,28.13
2023-03-03T02:12:17.396Z,27.77
2023-03-03T02:22:18.642Z,29.13
2023-03-03T02:32:19.910Z,30.05
2023-03-03T02:42:21.414Z,29.85
2023-03-03T02:52:22.635Z,29.10
2023-03-03T03:02:23.853Z,31.02
2023-03-03T03:12:25.062Z,29.25
2023-03-03T03:22:26.313Z,29.23
2023-03-03T03:32:27.544Z,29.55
2023-03-03T03:42:29.054Z,25.90
2023-03-03T03:52:30.292Z,25.77
2023-03-03T04:02:31.615Z,27.98
2023-03-03T04:12:38.314Z,26.20
2023-03-03T04:22:39.635Z,25.40
2023-03-03T04:32:40.946Z,26.15
2023-03-03T04:42:42.328Z,22.42
2023-03-03T04:52:43.583Z,22.42
2023-03-03T05:02:44.805Z,23.35
2023-03-03T05:12:46.031Z,23.10
2023-03-03T05:22:47.255Z,25.48
2023-03-03T05:32:48.665Z,26.35
2023-03-03T05:42:50.095Z,21.80
2023-03-03T05:52:53.999Z,19.90
2023-03-03T06:02:55.261Z,18.17
2023-03-03T06:12:56.632Z,21.38
2023-03-03T06:22:57.926Z,19.20
2023-03-03T06:32:59.308Z,21.23
2023-03-03T06:43:02.695Z,20.65
2023-03-03T06:53:03.965Z,23.57
2023-03-03T07:03:05.178Z,26.42
2023-03-03T07:13:07.368Z,26.65
2023-03-03T07:23:08.572Z,26.75
2023-03-03T07:33:09.783Z,27.63
2023-03-03T07:43:11.005Z,26.95
2023-03-03T07:53:12.894Z,26.30
2023-03-03T08:03:14.162Z,26.73
2023-03-03T08:13:15.353Z,25.90
2023-03-03T08:23:16.644Z,28.73
2023-03-03T08:33:18.125Z,28.88
2023-03-03T08:43:21.636Z,27.67
2023-03-03T08:53:22.988Z,27.60
2023-03-03T09:03:24.235Z,27.55
2023-03-03T09:13:25.485Z,27.25
2023-03-03T09:23:26.723Z,24.75
2023-03-03T09:33:28.089Z,25.67
2023-03-03T09:43:29.591Z,26.67
2023-03-03T09:53:31.594Z,24.35
2023-03-03T10:03:32.902Z,25.35
2023-03-03T10:13:34.261Z,23.67
2023-03-03T10:23:36.048Z,24.75
2023-03-03T10:33:37.359Z,23.70
2023-03-03T10:43:38.978Z,23.90
2023-03-03T10:53:40.650Z,23.35
2023-03-03T11:03:41.923Z,24.25
2023-03-03T11:13:44.586Z,23.45
2023-03-03T11:23:57.543Z,24.90
2023-03-03T11:33:58.866Z,24.75
2023-03-03T11:44:00.300Z,23.60
2023-03-03T11:54:02.220Z,23.35
2023-03-03T12:04:03.436Z,25.17
2023-03-03T12:14:04.951Z,23.23
2023-03-03T12:24:06.541Z,23.55
2023-03-03T12:34:11.339Z,25.95
2023-03-03T12:54:14.329Z,26.23
2023-03-03T13:04:15.660Z,24.38
2023-03-03T13:14:16.968Z,26.20
2023-03-03T13:24:18.358Z,25.55
2023-03-03T13:34:20.018Z,25.13
2023-03-03T13:44:22.866Z,24.15
2023-03-03T13:54:25.070Z,25.50
2023-03-03T14:04:26.891Z,25.67
2023-03-03T14:14:28.403Z,25.25
2023-03-03T14:35:07.776Z,25.52
2023-03-03T14:45:27.246Z,24.00
2023-03-03T14:55:30.416Z,23.85
2023-03-03T15:05:32.168Z,23.73
2023-03-03T15:15:33.553Z,23.60
2023-03-03T15:25:43.304Z,22.88
2023-03-03T15:35:45.606Z,22.60
2023-03-03T15:56:18.043Z,24.52
2023-03-03T16:06:19.612Z,22.25
2023-03-03T16:16:21.440Z,21.33
2023-03-03T16:26:22.710Z,22.88
2023-03-03T16:36:24.103Z,24.55
2023-03-03T16:46:25.336Z,27.25
2023-03-03T16:56:26.640Z,25.60
2023-03-03T17:06:27.937Z,20.38
2023-03-03T17:16:35.028Z,19.10
2023-03-03T17:27:04.480Z,20.42
2023-03-03T17:37:05.734Z,18.05
2023-03-03T17:47:07.275Z,17.38
2023-03-03T17:57:08.908Z,16.08
2023-03-03T18:07:10.202Z,15.70
2023-03-03T18:17:11.475Z,16.17
2023-03-03T18:27:26.581Z,15.48
2023-03-03T18:37:28.421Z,15.38
2023-03-03T18:47:29.682Z,17.92
2023-03-03T18:57:31.095Z,16.70
2023-03-03T19:07:32.550Z,14.27
2023-03-03T19:17:33.872Z,15.35
2023-03-03T19:27:35.140Z,14.45
2023-03-03T19:37:36.764Z,16.98
2023-03-03T19:47:38.114Z,18.95
2023-03-03T19:57:39.338Z,17.50
2023-03-03T20:07:40.551Z,15.82
2023-03-03T20:17:41.981Z,16.85
2023-03-03T20:27:45.797Z,17.45
2023-03-03T20:37:47.289Z,18.50
2023-03-03T20:47:48.512Z,20.30
2023-03-03T20:57:49.812Z,18.40
2023-03-03T21:07:51.598Z,17.20
2023-03-03T21:17:54.911Z,17.60
2023-03-03T21:27:56.149Z,18.17
2023-03-03T21:37:57.587Z,17.45
2023-03-03T21:48:01.369Z,18.50
2023-03-03T21:58:03.754Z,17.75
2023-03-03T22:08:05.041Z,17.42
2023-03-03T22:18:06.326Z,17.58
2023-03-03T22:28:07.612Z,18.33
2023-03-03T22:38:08.945Z,19.35
2023-03-03T22:48:10.150Z,18.60
2023-03-03T22:58:11.384Z,19.88
2023-03-03T23:08:12.662Z,20.63
2023-03-03T23:18:13.871Z,20.88
2023-03-03T23:28:15.797Z,22.98
2023-03-03T23:38:17.898Z,25.48
2023-03-03T23:48:20.665Z,25.20
2023-03-03T23:58:21.931Z,27.25
